createdAt,value
2018-09-27T00:00:31.303Z,101927.77
2018-09-27T00:03:04.893Z,101923.80
2018-09-27T00:05:38.507Z,101915.73
2018-09-27T00:08:12.210Z,101923.11
2018-09-27T00:10:45.742Z,101928.81
2018-09-27T00:13:19.300Z,101929.67
2018-09-27T00:15:52.927Z,101927.91
2018-09-27T00:18:26.498Z,101919.59
2018-09-27T00:21:00.048Z,101915.27
2018-09-27T00:23:33.645Z,101916.05
2018-09-27T00:26:08.111Z,101915.30
2018-09-27T00:28:41.683Z,101920.12
2018-09-27T00:31:15.343Z,101921.27
2018-09-27T00:33:48.919Z,101922.03
2018-09-27T00:36:22.496Z,101923.80
2018-09-27T00:38:56.070Z,101921.41
2018-09-27T00:41:29.729Z,101926.39
2018-09-27T00:44:03.369Z,101921.13
2018-09-27T00:46:36.991Z,101923.71
2018-09-27T00:49:10.571Z,101919.62
2018-09-27T00:51:44.146Z,101913.91
2018-09-27T00:54:17.733Z,101922.78
2018-09-27T00:56:51.259Z,101918.40
2018-09-27T00:59:24.816Z,101921.94
2018-09-27T01:01:58.573Z,101914.41
2018-09-27T01:04:32.171Z,101911.31
2018-09-27T01:07:05.777Z,101915.03
2018-09-27T01:09:39.345Z,101922.25
2018-09-27T01:12:12.997Z,101906.73
2018-09-27T01:14:46.756Z,101909.62
2018-09-27T01:17:20.416Z,101909.89
2018-09-27T01:19:54.002Z,101904.63
2018-09-27T01:22:27.722Z,101899.77
2018-09-27T01:25:01.344Z,101906.65
2018-09-27T01:27:34.922Z,101901.95
2018-09-27T01:30:09.032Z,101903.12
2018-09-27T01:32:42.629Z,101908.20
2018-09-27T01:35:16.194Z,101900.00
2018-09-27T01:37:49.776Z,101897.41
2018-09-27T01:40:23.398Z,101896.55
2018-09-27T01:42:57.017Z,101892.09
2018-09-27T01:45:30.600Z,101893.74
2018-09-27T01:48:04.178Z,101892.00
2018-09-27T01:50:38.111Z,101892.62
2018-09-27T01:53:11.693Z,101885.41
2018-09-27T01:55:45.269Z,101883.94
2018-09-27T01:58:18.891Z,101887.48
2018-09-27T02:00:52.512Z,101894.84
2018-09-27T02:03:26.077Z,101890.58
2018-09-27T02:05:59.662Z,101892.66
2018-09-27T02:08:33.225Z,101897.87
2018-09-27T02:11:06.928Z,101896.13
2018-09-27T02:13:40.547Z,101882.61
2018-09-27T02:16:14.105Z,101889.95
2018-09-27T02:18:47.684Z,101884.67
2018-09-27T02:21:21.319Z,101886.39
2018-09-27T02:23:54.970Z,101889.93
2018-09-27T02:26:28.550Z,101894.54
2018-09-27T02:29:02.171Z,101893.16
2018-09-27T02:31:35.786Z,101884.66
2018-09-27T02:34:09.488Z,101876.75
2018-09-27T02:36:43.084Z,101881.98
2018-09-27T02:39:16.784Z,101875.68
2018-09-27T02:41:50.440Z,101875.55
2018-09-27T02:44:24.089Z,101879.78
2018-09-27T02:46:57.694Z,101876.39
2018-09-27T02:49:31.311Z,101878.05
2018-09-27T02:52:04.926Z,101875.46
2018-09-27T02:54:38.618Z,101878.05
2018-09-27T02:57:12.243Z,101878.52
2018-09-27T02:59:45.973Z,101881.23
2018-09-27T03:02:19.802Z,101876.14
2018-09-27T03:04:53.456Z,101867.88
2018-09-27T03:07:27.037Z,101865.38
2018-09-27T03:10:00.703Z,101872.66
2018-09-27T03:12:34.539Z,101878.22
2018-09-27T03:15:08.187Z,101871.37
2018-09-27T03:17:41.790Z,101873.47
2018-09-27T03:20:15.411Z,101872.48
2018-09-27T03:22:49.101Z,101872.41
2018-09-27T03:25:22.749Z,101878.22
2018-09-27T03:27:56.475Z,101875.55
2018-09-27T03:30:30.106Z,101863.14
2018-09-27T03:33:03.760Z,101862.15
2018-09-27T03:35:37.376Z,101867.70
2018-09-27T03:38:11.032Z,101857.28
2018-09-27T03:40:44.676Z,101864.28
2018-09-27T03:43:18.299Z,101859.95
2018-09-27T03:45:51.918Z,101868.19
2018-09-27T03:48:25.518Z,101866.50
2018-09-27T03:50:59.121Z,101866.14
2018-09-27T03:53:32.709Z,101864.81
2018-09-27T03:56:06.321Z,101857.55
2018-09-27T03:58:39.917Z,101858.59
2018-09-27T04:01:13.549Z,101856.91
2018-09-27T04:03:47.196Z,101852.94
2018-09-27T04:06:20.816Z,101862.16
2018-09-27T04:08:54.454Z,101858.73
2018-09-27T04:11:28.107Z,101858.79
2018-09-27T04:14:01.720Z,101849.49
2018-09-27T04:16:35.341Z,101859.66
2018-09-27T04:19:08.944Z,101852.41
2018-09-27T04:21:42.604Z,101850.16
2018-09-27T04:24:16.182Z,101849.86
2018-09-27T04:26:49.799Z,101848.45
2018-09-27T04:29:23.463Z,101854.66
2018-09-27T04:31:57.089Z,101860.81
2018-09-27T04:34:30.640Z,101863.59
2018-09-27T04:37:04.273Z,101869.29
2018-09-27T04:39:37.902Z,101864.59
2018-09-27T04:42:11.512Z,101866.81
2018-09-27T04:44:45.090Z,101871.27
2018-09-27T04:47:18.710Z,101869.81
2018-09-27T04:49:52.282Z,101867.63
2018-09-27T04:52:26.014Z,101867.34
2018-09-27T04:54:59.605Z,101869.38
2018-09-27T04:57:33.187Z,101865.13
2018-09-27T05:00:06.945Z,101874.11
2018-09-27T05:02:40.483Z,101872.34
2018-09-27T05:05:14.368Z,101868.10
2018-09-27T05:07:47.979Z,101858.28
2018-09-27T05:10:21.605Z,101856.17
2018-09-27T05:12:55.247Z,101860.63
2018-09-27T05:15:28.891Z,101864.59
2018-09-27T05:18:02.510Z,101868.53
2018-09-27T05:20:36.302Z,101865.19
2018-09-27T05:23:09.882Z,101868.22
2018-09-27T05:25:43.530Z,101860.79
2018-09-27T05:28:17.123Z,101862.83
2018-09-27T05:30:50.757Z,101863.92
2018-09-27T05:33:24.451Z,101872.17
2018-09-27T05:35:58.041Z,101875.48
2018-09-27T05:38:31.752Z,101878.94
2018-09-27T05:41:07.026Z,101875.05
2018-09-27T05:43:40.756Z,101875.80
2018-09-27T05:46:14.362Z,101876.20
2018-09-27T05:48:47.996Z,101882.73
2018-09-27T05:51:21.630Z,101880.65
2018-09-27T05:53:55.226Z,101879.83
2018-09-27T05:56:28.902Z,101884.52
2018-09-27T05:59:02.502Z,101885.83
2018-09-27T06:01:36.213Z,101888.87
2018-09-27T06:04:09.816Z,101884.86
2018-09-27T06:06:43.445Z,101883.63
2018-09-27T06:09:17.073Z,101880.30
2018-09-27T06:11:50.691Z,101873.44
2018-09-27T06:14:24.309Z,101871.43
2018-09-27T06:16:57.927Z,101880.76
2018-09-27T06:19:31.695Z,101875.07
2018-09-27T06:22:05.227Z,101880.78
2018-09-27T06:24:38.821Z,101880.46
2018-09-27T06:27:12.527Z,101879.48
2018-09-27T06:29:46.100Z,101875.38
2018-09-27T06:32:19.863Z,101873.42
2018-09-27T06:34:53.464Z,101875.92
2018-09-27T06:37:27.085Z,101874.98
2018-09-27T06:40:00.701Z,101876.81
2018-09-27T06:42:34.424Z,101878.27
2018-09-27T06:45:08.868Z,101873.50
2018-09-27T06:47:42.554Z,101878.64
2018-09-27T06:50:16.176Z,101882.73
2018-09-27T06:52:49.816Z,101893.74
2018-09-27T06:55:23.541Z,101894.59
2018-09-27T06:57:57.079Z,101895.37
2018-09-27T07:00:30.767Z,101897.33
2018-09-27T07:03:04.578Z,101889.20
2018-09-27T07:05:38.273Z,101878.69
2018-09-27T07:08:11.877Z,101877.42
2018-09-27T07:10:45.629Z,101877.04
2018-09-27T07:13:19.265Z,101884.34
2018-09-27T07:15:52.887Z,101884.07
2018-09-27T07:18:26.489Z,101880.02
2018-09-27T07:21:00.109Z,101879.28
2018-09-27T07:23:33.853Z,101879.12
2018-09-27T07:26:07.547Z,101871.52
2018-09-27T07:28:41.244Z,101875.20
2018-09-27T07:31:14.946Z,101874.20
2018-09-27T07:33:48.587Z,101879.53
2018-09-27T07:36:22.216Z,101878.69
2018-09-27T07:38:55.821Z,101880.42
2018-09-27T07:41:29.415Z,101876.09
2018-09-27T07:44:03.057Z,101876.62
2018-09-27T07:46:36.686Z,101875.78
2018-09-27T07:49:10.287Z,101880.75
2018-09-27T07:51:43.861Z,101875.47
2018-09-27T07:54:17.514Z,101882.91
2018-09-27T07:56:51.118Z,101884.51
2018-09-27T07:59:24.729Z,101878.99
2018-09-27T08:01:58.301Z,101872.92
2018-09-27T08:04:31.923Z,101876.26
2018-09-27T08:07:05.635Z,101874.39
2018-09-27T08:09:39.294Z,101870.81
2018-09-27T08:12:12.911Z,101872.20
2018-09-27T08:14:46.513Z,101870.19
2018-09-27T08:17:20.182Z,101870.07
2018-09-27T08:19:53.794Z,101862.97
2018-09-27T08:22:27.404Z,101856.05
2018-09-27T08:25:01.001Z,101851.04
2018-09-27T08:27:34.596Z,101851.17
2018-09-27T08:30:08.230Z,101846.40
2018-09-27T08:32:42.039Z,101848.36
2018-09-27T08:35:15.595Z,101843.98
2018-09-27T08:37:49.193Z,101849.08
2018-09-27T08:40:22.886Z,101852.23
2018-09-27T08:42:56.472Z,101851.94
2018-09-27T08:45:30.262Z,101853.44
2018-09-27T08:48:03.739Z,101851.18
2018-09-27T08:50:37.335Z,101852.75
2018-09-27T08:53:10.941Z,101845.62
2018-09-27T08:55:44.680Z,101850.45
2018-09-27T08:58:18.227Z,101844.36
2018-09-27T09:00:51.837Z,101834.84
2018-09-27T09:03:25.446Z,101834.39
2018-09-27T09:05:59.120Z,101833.23
2018-09-27T09:08:32.742Z,101833.55
2018-09-27T09:11:06.390Z,101838.44
2018-09-27T09:13:40.152Z,101827.59
2018-09-27T09:16:13.767Z,101830.48
2018-09-27T09:18:47.394Z,101825.91
2018-09-27T09:21:20.988Z,101823.23
2018-09-27T09:23:54.590Z,101824.28
2018-09-27T09:26:28.183Z,101811.33
2018-09-27T09:29:01.853Z,101815.30
2018-09-27T09:31:35.433Z,101804.67
2018-09-27T09:34:09.070Z,101800.78
2018-09-27T09:36:42.672Z,101796.07
2018-09-27T09:39:16.293Z,101797.38
2018-09-27T09:41:49.921Z,101793.53
2018-09-27T09:44:23.516Z,101791.95
2018-09-27T09:46:57.178Z,101794.00
2018-09-27T09:49:30.795Z,101788.47
2018-09-27T09:52:04.383Z,101789.03
2018-09-27T09:54:38.014Z,101788.00
2018-09-27T09:57:11.647Z,101780.33
2018-09-27T09:59:45.818Z,101775.95
2018-09-27T10:02:19.454Z,101778.31
2018-09-27T10:04:53.075Z,101773.32
2018-09-27T10:07:26.791Z,101771.66
2018-09-27T10:10:00.412Z,101767.92
2018-09-27T10:12:34.043Z,101767.54
2018-09-27T10:15:07.677Z,101764.20
2018-09-27T10:17:41.263Z,101764.83
2018-09-27T10:20:15.108Z,101762.05
2018-09-27T10:22:48.693Z,101758.63
2018-09-27T10:25:22.342Z,101754.85
2018-09-27T10:27:55.934Z,101756.92
2018-09-27T10:30:29.544Z,101766.25
2018-09-27T10:33:03.163Z,101752.91
2018-09-27T10:35:36.776Z,101755.63
2018-09-27T10:38:10.349Z,101745.05
2018-09-27T10:40:44.027Z,101748.48
2018-09-27T10:43:17.684Z,101735.09
2018-09-27T10:45:51.654Z,101732.58
2018-09-27T10:48:25.273Z,101734.08
2018-09-27T10:50:58.872Z,101733.19
2018-09-27T10:53:32.521Z,101727.53
2018-09-27T10:56:06.174Z,101723.91
2018-09-27T10:58:39.764Z,101721.12
2018-09-27T11:01:13.359Z,101719.05
2018-09-27T11:03:47.038Z,101712.34
2018-09-27T11:06:20.648Z,101708.94
2018-09-27T11:08:54.370Z,101700.25
2018-09-27T11:11:28.049Z,101692.30
2018-09-27T11:14:01.600Z,101698.08
2018-09-27T11:16:35.291Z,101688.60
2018-09-27T11:19:08.942Z,101687.86
2018-09-27T11:21:43.448Z,101687.30
2018-09-27T11:24:17.091Z,101683.00
2018-09-27T11:26:50.695Z,101672.73
2018-09-27T11:29:29.585Z,101678.70
2018-09-27T11:32:08.591Z,101671.41
2018-09-27T11:34:42.220Z,101664.30
2018-09-27T11:37:15.809Z,101664.58
2018-09-27T11:39:49.370Z,101661.30
2018-09-27T11:42:23.400Z,101659.05
2018-09-27T11:44:57.065Z,101654.41
2018-09-27T11:47:30.678Z,101652.16
2018-09-27T11:50:04.405Z,101644.90
2018-09-27T11:52:37.984Z,101644.28
2018-09-27T11:55:12.155Z,101641.65
2018-09-27T11:57:45.725Z,101634.39
2018-09-27T12:00:19.349Z,101626.43
2018-09-27T12:02:52.983Z,101627.02
2018-09-27T12:05:26.552Z,101617.88
2018-09-27T12:08:00.182Z,101625.91
2018-09-27T12:10:33.781Z,101621.67
2018-09-27T12:13:07.447Z,101620.16
2018-09-27T12:15:41.056Z,101607.41
2018-09-27T12:18:20.966Z,101605.23
2018-09-27T12:20:54.691Z,101595.41
2018-09-27T12:23:28.289Z,101591.16
2018-09-27T12:26:01.916Z,101595.13
2018-09-27T12:28:35.520Z,101579.24
2018-09-27T12:31:09.360Z,101572.70
2018-09-27T12:33:42.891Z,101572.94
2018-09-27T12:36:16.476Z,101567.43
2018-09-27T12:38:50.128Z,101570.09
2018-09-27T12:41:23.742Z,101563.59
2018-09-27T12:43:57.320Z,101559.47
2018-09-27T12:46:31.007Z,101553.17
2018-09-27T12:49:04.619Z,101545.45
2018-09-27T12:51:38.317Z,101544.81
2018-09-27T12:54:11.974Z,101545.13
2018-09-27T12:56:45.567Z,101539.11
2018-09-27T12:59:19.157Z,101533.28
2018-09-27T13:01:53.013Z,101534.06
2018-09-27T13:04:26.480Z,101523.98
2018-09-27T13:07:00.050Z,101520.58
2018-09-27T13:09:33.836Z,101516.56
2018-09-27T13:12:07.376Z,101507.25
2018-09-27T13:14:40.983Z,101515.39
2018-09-27T13:17:14.654Z,101507.59
2018-09-27T13:19:48.406Z,101501.05
2018-09-27T13:22:21.997Z,101499.64
2018-09-27T13:24:55.650Z,101494.25
2018-09-27T13:27:29.207Z,101495.41
2018-09-27T13:30:02.856Z,101481.83
2018-09-27T13:32:36.489Z,101479.72
2018-09-27T13:35:10.132Z,101472.77
2018-09-27T13:37:43.748Z,101473.64
2018-09-27T13:40:17.382Z,101462.68
2018-09-27T13:42:51.050Z,101462.68
2018-09-27T13:45:24.643Z,101458.30
2018-09-27T13:47:58.278Z,101463.32
2018-09-27T13:50:31.852Z,101454.48
2018-09-27T13:53:05.490Z,101450.48
2018-09-27T13:55:39.092Z,101445.53
2018-09-27T13:58:15.643Z,101435.14
2018-09-27T14:00:54.303Z,101429.52
2018-09-27T14:03:28.047Z,101433.23
2018-09-27T14:06:01.673Z,101418.59
2018-09-27T14:08:39.187Z,101414.14
2018-09-27T14:11:12.946Z,101416.16
2018-09-27T14:13:46.717Z,101411.04
2018-09-27T14:16:20.363Z,101399.63
2018-09-27T14:18:54.261Z,101403.26
2018-09-27T14:21:27.962Z,101406.13
2018-09-27T14:24:02.085Z,101400.59
2018-09-27T14:26:35.780Z,101394.06
2018-09-27T14:29:09.420Z,101385.46
2018-09-27T14:31:43.128Z,101382.30
2018-09-27T14:34:16.833Z,101387.38
2018-09-27T14:36:50.507Z,101381.38
2018-09-27T14:39:24.197Z,101376.92
2018-09-27T14:41:57.875Z,101383.82
2018-09-27T14:44:31.603Z,101375.05
2018-09-27T14:47:05.330Z,101370.00
2018-09-27T14:49:39.043Z,101366.39
2018-09-27T14:52:13.250Z,101370.00
2018-09-27T14:54:47.061Z,101361.83
2018-09-27T14:57:20.905Z,101364.47
2018-09-27T14:59:54.788Z,101354.20
2018-09-27T15:02:28.678Z,101354.97
2018-09-27T15:05:18.503Z,101357.19
2018-09-27T15:07:52.260Z,101353.02
2018-09-27T15:10:25.981Z,101348.00
2018-09-27T15:12:59.613Z,101344.34
2018-09-27T15:15:33.512Z,101346.32
2018-09-27T15:18:07.193Z,101341.75
2018-09-27T15:20:40.798Z,101343.07
2018-09-27T15:23:14.510Z,101337.13
2018-09-27T15:25:48.128Z,101333.41
2018-09-27T15:28:21.841Z,101326.69
2018-09-27T15:30:55.476Z,101328.55
2018-09-27T15:33:29.128Z,101326.95
2018-09-27T15:36:02.730Z,101325.30
2018-09-27T15:38:36.355Z,101320.27
2018-09-27T15:41:10.026Z,101317.58
2018-09-27T15:43:43.634Z,101315.17
2018-09-27T15:46:17.369Z,101314.23
2018-09-27T15:48:51.014Z,101305.88
2018-09-27T15:51:24.731Z,101302.52
2018-09-27T15:53:58.473Z,101303.73
2018-09-27T15:56:32.067Z,101305.51
2018-09-27T15:59:05.720Z,101300.95
2018-09-27T16:01:39.317Z,101300.48
2018-09-27T16:04:13.080Z,101297.87
2018-09-27T16:06:46.722Z,101293.42
2018-09-27T16:09:20.330Z,101285.14
2018-09-27T16:11:54.035Z,101288.69
2018-09-27T16:14:27.655Z,101293.33
2018-09-27T16:17:01.253Z,101288.77
2018-09-27T16:19:34.934Z,101286.62
2018-09-27T16:22:08.601Z,101285.80
2018-09-27T16:24:42.230Z,101285.52
2018-09-27T16:27:15.822Z,101276.65
2018-09-27T16:29:49.439Z,101281.28
2018-09-27T16:32:23.034Z,101272.45
2018-09-27T16:34:56.665Z,101271.44
2018-09-27T16:37:30.231Z,101267.88
2018-09-27T16:40:03.954Z,101264.72
2018-09-27T16:42:37.572Z,101262.82
2018-09-27T16:45:11.398Z,101266.17
2018-09-27T16:47:45.245Z,101263.16
2018-09-27T16:50:18.741Z,101262.66
2018-09-27T16:52:52.368Z,101263.27
2018-09-27T16:55:26.009Z,101258.45
2018-09-27T16:58:00.774Z,101257.69
2018-09-27T17:00:34.418Z,101258.49
2018-09-27T17:03:08.143Z,101252.80
2018-09-27T17:05:41.878Z,101248.88
2018-09-27T17:08:15.445Z,101243.11
2018-09-27T17:10:49.182Z,101242.91
2018-09-27T17:13:22.818Z,101234.97
2018-09-27T17:15:56.957Z,101236.70
2018-09-27T17:18:30.541Z,101240.47
2018-09-27T17:21:04.183Z,101246.87
2018-09-27T17:23:38.009Z,101236.50
2018-09-27T17:26:11.614Z,101236.42
2018-09-27T17:28:45.252Z,101233.11
2018-09-27T17:31:18.855Z,101227.56
2018-09-27T17:33:52.592Z,101228.36
2018-09-27T17:36:30.468Z,101229.08
2018-09-27T17:39:05.191Z,101219.56
2018-09-27T17:41:38.958Z,101222.17
2018-09-27T17:44:12.540Z,101222.12
2018-09-27T17:46:46.236Z,101219.62
2018-09-27T17:49:19.903Z,101224.84
2018-09-27T17:51:53.539Z,101225.36
2018-09-27T17:54:27.165Z,101218.12
2018-09-27T17:57:01.004Z,101221.69
2018-09-27T17:59:34.685Z,101222.17
2018-09-27T18:02:08.294Z,101225.15
2018-09-27T18:04:41.955Z,101223.69
2018-09-27T18:07:15.724Z,101216.81
2018-09-27T18:09:50.390Z,101219.31
2018-09-27T18:12:24.327Z,101220.47
2018-09-27T18:14:58.009Z,101225.39
2018-09-27T18:17:33.438Z,101220.67
2018-09-27T18:20:07.888Z,101218.02
2018-09-27T18:22:41.985Z,101213.20
2018-09-27T18:25:15.783Z,101213.10
2018-09-27T18:27:49.416Z,101210.42
2018-09-27T18:30:23.007Z,101210.00
2018-09-27T18:32:56.678Z,101209.20
2018-09-27T18:35:30.287Z,101206.27
2018-09-27T18:38:04.015Z,101208.83
2018-09-27T18:40:37.846Z,101210.44
2018-09-27T18:43:12.368Z,101214.88
2018-09-27T18:45:45.874Z,101200.30
2018-09-27T18:48:20.219Z,101200.13
2018-09-27T18:50:54.084Z,101205.31
2018-09-27T18:53:27.745Z,101208.66
2018-09-27T18:56:01.346Z,101205.11
2018-09-27T18:58:35.303Z,101208.02
2018-09-27T19:01:08.957Z,101207.05
2018-09-27T19:03:42.598Z,101206.84
2018-09-27T19:06:16.288Z,101203.74
2018-09-27T19:08:50.430Z,101205.36
2018-09-27T19:11:24.486Z,101208.25
2018-09-27T19:13:58.132Z,101201.12
2018-09-27T19:16:31.873Z,101207.41
2018-09-27T19:19:05.899Z,101199.59
2018-09-27T19:21:39.866Z,101203.73
2018-09-27T19:24:13.574Z,101197.81
2018-09-27T19:26:47.411Z,101201.00
2018-09-27T19:29:21.064Z,101198.16
2018-09-27T19:31:54.863Z,101197.50
2018-09-27T19:34:28.535Z,101196.89
2018-09-27T19:37:02.136Z,101185.69
2018-09-27T19:39:35.722Z,101179.84
2018-09-27T19:42:09.492Z,101183.17
2018-09-27T19:44:43.093Z,101182.63
2018-09-27T19:47:16.700Z,101178.14
2018-09-27T19:49:50.582Z,101177.59
2018-09-27T19:52:24.259Z,101168.81
2018-09-27T19:54:57.877Z,101170.02
2018-09-27T19:57:31.512Z,101162.23
2018-09-27T20:00:05.306Z,101160.33
2018-09-27T20:02:38.899Z,101154.54
2018-09-27T20:05:12.630Z,101148.20
2018-09-27T20:07:46.218Z,101144.88
2018-09-27T20:10:19.843Z,101140.67
2018-09-27T20:12:53.577Z,101137.88
2018-09-27T20:15:27.175Z,101135.05
2018-09-27T20:18:01.181Z,101135.26
2018-09-27T20:20:34.774Z,101132.85
2018-09-27T20:23:08.520Z,101129.53
2018-09-27T20:25:42.061Z,101134.41
2018-09-27T20:28:15.730Z,101128.06
2018-09-27T20:30:49.470Z,101132.37
2018-09-27T20:33:23.124Z,101131.58
2018-09-27T20:35:56.708Z,101130.00
2018-09-27T20:38:30.326Z,101134.80
2018-09-27T20:41:03.983Z,101131.48
2018-09-27T20:43:37.674Z,101127.34
2018-09-27T20:46:11.258Z,101125.31
2018-09-27T20:48:44.878Z,101128.05
2018-09-27T20:51:18.445Z,101126.02
2018-09-27T20:53:52.103Z,101129.17
2018-09-27T20:56:25.668Z,101132.26
2018-09-27T20:58:59.303Z,101126.81
2018-09-27T21:01:32.862Z,101128.59
2018-09-27T21:04:06.624Z,101122.40
2018-09-27T21:06:40.466Z,101123.03
2018-09-27T21:09:14.610Z,101121.91
2018-09-27T21:11:48.204Z,101117.84
2018-09-27T21:14:21.842Z,101111.59
2018-09-27T21:16:55.426Z,101107.87
2018-09-27T21:19:29.063Z,101110.99
2018-09-27T21:22:02.779Z,101105.64
2018-09-27T21:24:36.706Z,101105.42
2018-09-27T21:27:10.288Z,101102.64
2018-09-27T21:29:43.929Z,101102.42
2018-09-27T21:32:17.543Z,101101.70
2018-09-27T21:34:51.144Z,101099.64
2018-09-27T21:37:24.762Z,101097.91
2018-09-27T21:39:58.431Z,101101.70
2018-09-27T21:42:31.995Z,101099.13
2018-09-27T21:45:05.638Z,101094.50
2018-09-27T21:47:39.348Z,101089.91
2018-09-27T21:50:13.080Z,101089.08
2018-09-27T21:52:46.814Z,101079.77
2018-09-27T21:55:20.459Z,101086.34
2018-09-27T21:57:54.117Z,101079.61
2018-09-27T22:00:27.858Z,101083.11
2018-09-27T22:03:01.583Z,101080.17
2018-09-27T22:05:35.202Z,101078.58
2018-09-27T22:08:08.947Z,101076.54
2018-09-27T22:10:42.609Z,101070.64
2018-09-27T22:13:16.366Z,101064.35
2018-09-27T22:15:50.015Z,101067.00
2018-09-27T22:18:23.801Z,101063.23
2018-09-27T22:20:57.413Z,101063.73
2018-09-27T22:23:31.006Z,101067.61
2018-09-27T22:26:04.616Z,101064.66
2018-09-27T22:28:38.202Z,101067.73
2018-09-27T22:31:13.996Z,101064.37
2018-09-27T22:33:47.590Z,101058.84
2018-09-27T22:36:21.330Z,101051.66
2018-09-27T22:38:55.016Z,101049.23
2018-09-27T22:41:28.790Z,101049.31
2018-09-27T22:44:02.374Z,101047.32
2018-09-27T22:46:35.984Z,101053.38
2018-09-27T22:49:09.577Z,101056.02
2018-09-27T22:51:43.267Z,101047.16
2018-09-27T22:54:18.846Z,101045.53
2018-09-27T22:56:52.490Z,101046.42
2018-09-27T22:59:26.116Z,101053.77
2018-09-27T23:01:59.705Z,101055.91
2018-09-27T23:04:33.310Z,101051.64
2018-09-27T23:07:06.921Z,101057.27
2018-09-27T23:09:40.506Z,101054.78
2018-09-27T23:12:14.141Z,101055.33
2018-09-27T23:14:48.852Z,101062.39
2018-09-27T23:17:22.493Z,101060.73
2018-09-27T23:19:56.091Z,101066.38
2018-09-27T23:22:29.692Z,101055.02
2018-09-27T23:25:03.275Z,101057.67
2018-09-27T23:27:36.895Z,101065.42
2018-09-27T23:30:10.481Z,101056.91
2018-09-27T23:32:44.158Z,101054.06
2018-09-27T23:35:17.768Z,101063.12
2018-09-27T23:37:51.428Z,101069.11
2018-09-27T23:40:25.127Z,101068.52
2018-09-27T23:42:58.772Z,101067.59
2018-09-27T23:45:32.433Z,101065.35
2018-09-27T23:48:06.070Z,101056.77
2018-09-27T23:50:39.719Z,101062.27
2018-09-27T23:53:13.334Z,101054.07
2018-09-27T23:55:46.975Z,101050.97
2018-09-27T23:58:20.587Z,101047.13
